createdAt,value
2022-09-06T00:01:12.604Z,21.57
2022-09-06T00:03:42.219Z,21.52
2022-09-06T00:06:11.605Z,21.50
2022-09-06T00:08:39.762Z,21.53
2022-09-06T00:11:08.058Z,21.53
2022-09-06T00:13:36.603Z,21.49
2022-09-06T00:16:09.806Z,21.47
2022-09-06T00:18:37.638Z,21.36
2022-09-06T00:21:15.249Z,21.48
2022-09-06T00:23:43.186Z,21.53
2022-09-06T00:26:10.932Z,21.66
2022-09-06T00:28:38.759Z,21.68
2022-09-06T00:31:11.360Z,21.59
2022-09-06T00:33:39.102Z,21.56
2022-09-06T00:36:09.454Z,21.52
2022-09-06T00:38:37.592Z,21.39
2022-09-06T00:41:06.375Z,21.32
2022-09-06T00:43:34.210Z,21.21
2022-09-06T00:46:03.431Z,21.27
2022-09-06T00:48:31.728Z,21.21
2022-09-06T00:51:03.321Z,21.32
2022-09-06T00:53:33.546Z,21.63
2022-09-06T00:56:01.662Z,21.56
2022-09-06T00:58:29.644Z,21.32
2022-09-06T01:00:57.422Z,21.41
2022-09-06T01:03:26.557Z,21.35
2022-09-06T01:06:05.350Z,21.70
2022-09-06T01:08:44.363Z,21.70
2022-09-06T01:11:26.375Z,21.38
2022-09-06T01:14:01.082Z,21.67
2022-09-06T01:16:40.696Z,21.95
2022-09-06T01:19:44.042Z,22.04
2022-09-06T01:22:31.830Z,22.04
2022-09-06T01:25:27.211Z,21.87
2022-09-06T01:28:23.708Z,21.75
2022-09-06T01:30:58.717Z,21.65
2022-09-06T01:33:34.978Z,21.42
2022-09-06T01:36:06.302Z,21.40
2022-09-06T01:38:34.053Z,21.24
2022-09-06T01:41:01.827Z,21.07
2022-09-06T01:43:34.217Z,21.09
2022-09-06T01:46:08.482Z,20.96
2022-09-06T01:48:49.215Z,21.38
2022-09-06T01:51:24.647Z,21.42
2022-09-06T01:54:31.479Z,21.27
2022-09-06T01:57:13.033Z,21.12
2022-09-06T02:00:02.179Z,20.96
2022-09-06T02:02:39.083Z,21.02
2022-09-06T02:05:12.706Z,20.97
2022-09-06T02:07:43.383Z,21.07
2022-09-06T02:10:15.984Z,21.16
2022-09-06T02:12:48.617Z,21.25
2022-09-06T02:15:23.549Z,21.21
2022-09-06T02:17:58.313Z,21.25
2022-09-06T02:20:28.988Z,21.46
2022-09-06T02:23:00.808Z,21.52
2022-09-06T02:25:34.668Z,21.48
2022-09-06T02:28:02.664Z,21.68
2022-09-06T02:30:33.534Z,21.90
2022-09-06T02:33:05.851Z,21.88
2022-09-06T02:35:42.761Z,21.70
2022-09-06T02:38:10.533Z,21.69
2022-09-06T02:40:38.988Z,21.57
2022-09-06T02:43:06.827Z,21.52
2022-09-06T02:45:36.128Z,21.47
2022-09-06T02:48:04.165Z,21.37
2022-09-06T02:50:31.961Z,21.34
2022-09-06T02:53:04.802Z,21.51
2022-09-06T02:55:32.878Z,21.55
2022-09-06T02:58:00.561Z,21.60
2022-09-06T03:00:29.810Z,21.52
2022-09-06T03:02:59.088Z,21.41
2022-09-06T03:05:28.216Z,21.54
2022-09-06T03:07:56.292Z,21.60
2022-09-06T03:10:24.943Z,21.50
2022-09-06T03:12:53.095Z,21.42
2022-09-06T03:15:21.108Z,21.40
2022-09-06T03:17:48.767Z,21.34
2022-09-06T03:20:17.879Z,21.21
2022-09-06T03:22:45.529Z,20.99
2022-09-06T03:25:13.294Z,20.99
2022-09-06T03:27:41.034Z,21.09
2022-09-06T03:30:09.684Z,21.08
2022-09-06T03:32:37.556Z,20.99
2022-09-06T03:35:05.692Z,20.88
2022-09-06T03:37:34.766Z,20.76
2022-09-06T03:40:02.754Z,20.71
2022-09-06T03:42:30.848Z,20.63
2022-09-06T03:44:58.533Z,20.59
2022-09-06T03:47:26.233Z,20.60
2022-09-06T03:49:53.917Z,20.60
2022-09-06T03:52:21.672Z,20.58
2022-09-06T03:54:50.731Z,20.47
2022-09-06T03:57:18.448Z,20.33
2022-09-06T03:59:46.126Z,20.31
2022-09-06T04:02:13.948Z,20.20
2022-09-06T04:04:41.655Z,20.16
2022-09-06T04:07:09.407Z,20.19
2022-09-06T04:09:37.774Z,20.58
2022-09-06T04:12:07.133Z,20.87
2022-09-06T04:14:34.845Z,21.09
2022-09-06T04:17:02.579Z,21.10
2022-09-06T04:19:30.286Z,20.88
2022-09-06T04:21:58.034Z,20.79
2022-09-06T04:24:25.808Z,20.72
2022-09-06T04:26:53.462Z,20.63
2022-09-06T04:29:22.574Z,20.68
2022-09-06T04:31:50.347Z,20.66
2022-09-06T04:34:19.690Z,20.66
2022-09-06T04:36:48.415Z,20.62
2022-09-06T04:39:16.458Z,20.57
2022-09-06T04:41:44.145Z,20.61
2022-09-06T04:44:11.831Z,20.61
2022-09-06T04:46:43.133Z,20.71
2022-09-06T04:49:11.004Z,20.84
2022-09-06T04:51:39.674Z,20.93
2022-09-06T04:54:07.712Z,20.78
2022-09-06T04:56:35.484Z,20.53
2022-09-06T04:59:03.216Z,20.50
2022-09-06T05:01:30.966Z,20.43
2022-09-06T05:04:00.100Z,20.30
2022-09-06T05:06:27.969Z,20.35
2022-09-06T05:08:55.747Z,20.34
2022-09-06T05:11:23.709Z,20.35
2022-09-06T05:13:51.383Z,20.33
2022-09-06T05:16:19.213Z,20.43
2022-09-06T05:18:46.969Z,20.48
2022-09-06T05:21:16.076Z,20.49
2022-09-06T05:23:43.969Z,20.32
2022-09-06T05:26:11.760Z,20.31
2022-09-06T05:28:39.477Z,20.20
2022-09-06T05:31:08.861Z,20.22
2022-09-06T05:33:36.675Z,20.20
2022-09-06T05:36:04.770Z,20.21
2022-09-06T05:38:34.253Z,20.37
2022-09-06T05:41:02.149Z,20.36
2022-09-06T05:43:32.824Z,20.24
2022-09-06T05:46:00.633Z,20.17
2022-09-06T05:48:29.184Z,20.19
2022-09-06T05:51:02.533Z,20.16
2022-09-06T05:53:36.409Z,20.25
2022-09-06T05:56:05.769Z,20.39
2022-09-06T05:58:33.544Z,20.39
2022-09-06T06:01:09.356Z,20.32
2022-09-06T06:03:37.121Z,20.40
2022-09-06T06:06:04.895Z,20.42
2022-09-06T06:08:32.751Z,20.48
2022-09-06T06:11:02.363Z,20.38
2022-09-06T06:13:34.889Z,20.38
2022-09-06T06:16:03.651Z,20.45
2022-09-06T06:18:31.484Z,20.44
2022-09-06T06:21:13.096Z,20.44
2022-09-06T06:23:42.149Z,20.50
2022-09-06T06:26:12.710Z,20.55
2022-09-06T06:28:41.376Z,20.72
2022-09-06T06:34:20.831Z,20.73
2022-09-06T06:36:48.901Z,20.69
2022-09-06T06:39:16.776Z,20.62
2022-09-06T06:41:45.850Z,20.74
2022-09-06T06:44:13.530Z,20.74
2022-09-06T06:46:45.108Z,20.87
2022-09-06T06:49:17.158Z,20.80
2022-09-06T06:51:45.036Z,20.86
2022-09-06T06:54:12.688Z,20.89
2022-09-06T06:56:42.125Z,20.88
2022-09-06T06:59:11.240Z,20.90
2022-09-06T07:01:39.263Z,20.96
2022-09-06T07:04:08.675Z,20.92
2022-09-06T07:12:24.979Z,20.99
2022-09-06T07:14:54.788Z,20.95
2022-09-06T07:17:22.523Z,21.01
2022-09-06T07:22:38.157Z,21.07
2022-09-06T07:25:06.915Z,20.99
2022-09-06T07:27:50.450Z,20.99
2022-09-06T07:30:20.847Z,20.88
2022-09-06T07:32:48.619Z,20.89
2022-09-06T07:35:16.395Z,20.90
2022-09-06T07:37:44.138Z,20.93
2022-09-06T07:40:12.548Z,20.99
2022-09-06T07:42:40.262Z,20.97
2022-09-06T07:45:08.926Z,21.02
2022-09-06T07:53:15.833Z,21.00
2022-09-06T07:55:49.607Z,20.81
2022-09-06T07:58:17.290Z,20.83
2022-09-06T08:00:45.007Z,20.84
2022-09-06T08:03:14.180Z,20.90
2022-09-06T08:11:17.893Z,20.84
2022-09-06T08:13:45.968Z,20.87
2022-09-06T08:16:14.031Z,20.90
2022-09-06T08:18:43.448Z,21.02
2022-09-06T08:21:13.572Z,21.14
2022-09-06T08:23:43.718Z,21.22
2022-09-06T08:26:12.016Z,21.29
2022-09-06T08:28:39.787Z,21.41
2022-09-06T08:31:09.047Z,21.50
2022-09-06T08:33:37.573Z,21.60
2022-09-06T08:36:08.042Z,21.60
2022-09-06T08:38:35.976Z,21.61
2022-09-06T08:41:09.450Z,21.63
2022-09-06T08:43:38.122Z,21.68
2022-09-06T08:46:07.902Z,21.83
2022-09-06T08:48:39.746Z,21.91
2022-09-06T08:51:49.765Z,21.97
2022-09-06T08:54:26.584Z,22.01
2022-09-06T08:57:05.574Z,22.04
2022-09-06T08:59:39.813Z,22.02
2022-09-06T09:02:13.290Z,22.07
2022-09-06T09:04:45.398Z,22.09
2022-09-06T09:07:29.937Z,22.11
2022-09-06T09:10:03.679Z,22.15
2022-09-06T09:12:37.628Z,22.13
2022-09-06T09:15:10.430Z,22.16
2022-09-06T09:17:38.330Z,22.20
2022-09-06T09:20:08.357Z,22.22
2022-09-06T09:22:37.129Z,22.17
2022-09-06T09:25:09.491Z,22.20
2022-09-06T09:27:39.554Z,22.15
2022-09-06T09:32:56.478Z,22.36
2022-09-06T09:35:31.878Z,22.41
2022-09-06T09:38:09.524Z,22.47
2022-09-06T09:40:50.562Z,22.51
2022-09-06T09:43:21.981Z,22.54
2022-09-06T09:46:09.743Z,22.68
2022-09-06T09:48:39.069Z,22.78
2022-09-06T09:51:27.354Z,22.88
2022-09-06T09:53:57.166Z,22.95
2022-09-06T09:56:45.202Z,22.96
2022-09-06T09:59:23.173Z,23.02
2022-09-06T10:01:53.226Z,23.11
2022-09-06T10:04:44.952Z,23.17
2022-09-06T10:07:16.209Z,23.25
2022-09-06T10:09:46.377Z,23.29
2022-09-06T10:12:20.570Z,23.39
2022-09-06T10:14:51.771Z,23.41
2022-09-06T10:17:22.290Z,23.50
2022-09-06T10:19:49.956Z,23.56
2022-09-06T10:22:27.370Z,23.59
2022-09-06T10:25:28.665Z,23.66
2022-09-06T10:28:16.164Z,23.77
2022-09-06T10:31:07.284Z,23.73
2022-09-06T10:33:42.392Z,23.70
2022-09-06T10:36:10.012Z,23.68
2022-09-06T10:38:47.067Z,23.68
2022-09-06T10:41:29.603Z,23.70
2022-09-06T10:44:24.098Z,23.75
2022-09-06T10:47:01.047Z,23.76
2022-09-06T10:49:29.547Z,23.84
2022-09-06T10:52:01.936Z,23.90
2022-09-06T10:54:36.255Z,23.97
2022-09-06T11:00:04.882Z,24.07
2022-09-06T11:02:40.954Z,24.14
2022-09-06T11:10:52.405Z,24.28
2022-09-06T11:13:21.719Z,24.22
2022-09-06T11:15:57.636Z,24.39
2022-09-06T11:18:32.327Z,24.41
2022-09-06T11:21:19.367Z,24.46
2022-09-06T11:23:52.601Z,24.51
2022-09-06T11:26:31.740Z,24.60
2022-09-06T11:29:01.962Z,24.70
2022-09-06T11:34:24.692Z,24.71
2022-09-06T11:36:55.517Z,24.86
2022-09-06T11:42:40.499Z,24.95
2022-09-06T11:45:21.680Z,24.95
2022-09-06T11:47:52.370Z,24.89
2022-09-06T11:50:47.588Z,24.79
2022-09-06T11:53:17.324Z,24.91
2022-09-06T11:55:47.000Z,25.07
2022-09-06T11:58:27.802Z,25.07
2022-09-06T12:01:35.146Z,25.11
2022-09-06T12:04:09.907Z,25.26
2022-09-06T12:06:41.199Z,25.32
2022-09-06T12:09:29.574Z,25.42
2022-09-06T12:11:58.139Z,25.22
2022-09-06T12:14:32.356Z,25.28
2022-09-06T12:17:27.654Z,25.49
2022-09-06T12:20:06.711Z,25.55
2022-09-06T12:23:04.576Z,25.60
2022-09-06T12:25:54.901Z,25.65
2022-09-06T12:28:34.750Z,25.65
2022-09-06T12:31:23.032Z,25.60
2022-09-06T12:33:51.201Z,25.54
2022-09-06T12:36:23.583Z,25.66
2022-09-06T12:38:59.764Z,25.49
2022-09-06T12:41:29.814Z,25.70
2022-09-06T12:44:00.718Z,25.73
2022-09-06T12:46:31.139Z,25.73
2022-09-06T12:49:04.065Z,25.81
2022-09-06T12:51:33.379Z,25.79
2022-09-06T12:54:02.623Z,26.09
2022-09-06T12:56:32.880Z,26.03
2022-09-06T12:59:23.489Z,25.91
2022-09-06T13:01:57.235Z,26.08
2022-09-06T13:04:33.871Z,25.98
2022-09-06T13:07:04.801Z,25.90
2022-09-06T13:09:34.009Z,25.82
2022-09-06T13:12:07.402Z,26.14
2022-09-06T13:14:36.021Z,26.11
2022-09-06T13:17:03.680Z,26.14
2022-09-06T13:19:34.175Z,26.25
2022-09-06T13:22:07.349Z,26.23
2022-09-06T13:24:47.013Z,26.22
2022-09-06T13:27:25.172Z,26.27
2022-09-06T13:29:57.729Z,26.31
2022-09-06T13:32:26.902Z,26.43
2022-09-06T13:34:56.995Z,26.42
2022-09-06T13:37:27.201Z,26.67
2022-09-06T13:39:54.905Z,26.76
2022-09-06T13:42:30.572Z,26.72
2022-09-06T13:45:02.134Z,26.39
2022-09-06T13:47:31.161Z,26.18
2022-09-06T13:49:58.815Z,26.03
2022-09-06T13:52:27.812Z,25.97
2022-09-06T13:54:55.772Z,26.03
2022-09-06T13:57:24.602Z,26.23
2022-09-06T13:59:52.381Z,26.37
2022-09-06T14:02:20.930Z,26.08
2022-09-06T14:04:48.695Z,26.09
2022-09-06T14:07:16.368Z,26.05
2022-09-06T14:09:45.654Z,26.30
2022-09-06T14:12:13.438Z,26.39
2022-09-06T14:14:41.190Z,26.29
2022-09-06T14:17:09.170Z,26.11
2022-09-06T14:19:36.903Z,26.04
2022-09-06T14:22:06.874Z,26.34
2022-09-06T14:24:34.687Z,26.22
2022-09-06T14:27:05.108Z,26.17
2022-09-06T14:29:32.869Z,26.41
2022-09-06T14:32:00.481Z,26.41
2022-09-06T14:34:29.012Z,26.24
2022-09-06T14:36:56.725Z,26.00
2022-09-06T14:39:25.546Z,25.85
2022-09-06T14:41:53.916Z,25.70
2022-09-06T14:44:23.320Z,25.61
2022-09-06T14:46:53.424Z,25.58
2022-09-06T14:49:21.719Z,25.64
2022-09-06T14:51:49.449Z,25.61
2022-09-06T14:54:17.280Z,25.56
2022-09-06T14:56:45.304Z,25.55
2022-09-06T14:59:13.504Z,25.52
2022-09-06T15:01:42.782Z,25.63
2022-09-06T15:04:12.238Z,25.69
2022-09-06T15:06:44.837Z,25.78
2022-09-06T15:09:12.674Z,25.65
2022-09-06T15:11:42.764Z,25.88
2022-09-06T15:14:16.141Z,25.88
2022-09-06T15:16:45.673Z,26.29
2022-09-06T15:19:13.928Z,26.43
2022-09-06T15:21:42.013Z,26.36
2022-09-06T15:24:12.180Z,26.21
2022-09-06T15:26:40.946Z,26.12
2022-09-06T15:29:09.150Z,26.04
2022-09-06T15:31:38.015Z,26.00
2022-09-06T15:34:09.025Z,25.98
2022-09-06T15:36:37.286Z,25.91
2022-09-06T15:39:06.776Z,25.88
2022-09-06T15:41:37.048Z,26.19
2022-09-06T15:44:09.484Z,26.84
2022-09-06T15:46:49.207Z,26.56
2022-09-06T15:49:23.267Z,26.41
2022-09-06T15:51:53.470Z,26.12
2022-09-06T15:54:44.145Z,26.01
2022-09-06T15:57:13.059Z,25.80
2022-09-06T15:59:41.021Z,25.66
2022-09-06T16:02:09.536Z,25.53
2022-09-06T16:04:38.808Z,25.57
2022-09-06T16:07:06.699Z,25.47
2022-09-06T16:09:34.549Z,25.46
2022-09-06T16:12:02.274Z,25.51
2022-09-06T16:14:30.233Z,25.58
2022-09-06T16:16:58.340Z,25.61
2022-09-06T16:19:26.895Z,25.65
2022-09-06T16:21:56.016Z,25.67
2022-09-06T16:24:23.942Z,25.64
2022-09-06T16:26:51.712Z,25.58
2022-09-06T16:29:20.299Z,25.53
2022-09-06T16:31:48.712Z,25.51
2022-09-06T16:34:17.205Z,25.43
2022-09-06T16:36:45.106Z,25.53
2022-09-06T16:39:14.223Z,25.50
2022-09-06T16:41:43.586Z,25.42
2022-09-06T16:44:16.329Z,25.29
2022-09-06T16:46:45.313Z,25.17
2022-09-06T16:49:13.205Z,25.16
2022-09-06T16:51:41.053Z,25.14
2022-09-06T16:54:08.840Z,25.08
2022-09-06T16:56:38.898Z,25.03
2022-09-06T16:59:08.911Z,24.96
2022-09-06T17:01:38.600Z,24.91
2022-09-06T17:04:06.734Z,24.86
2022-09-06T17:06:42.147Z,24.80
2022-09-06T17:09:09.935Z,24.76
2022-09-06T17:11:40.269Z,24.77
2022-09-06T17:14:08.431Z,24.76
2022-09-06T17:16:53.936Z,25.12
2022-09-06T17:19:22.044Z,25.26
2022-09-06T17:21:49.766Z,25.46
2022-09-06T17:24:17.528Z,25.41
2022-09-06T17:26:46.626Z,25.35
2022-09-06T17:29:14.380Z,25.19
2022-09-06T17:31:42.100Z,25.02
2022-09-06T17:34:09.826Z,24.91
2022-09-06T17:36:38.254Z,24.84
2022-09-06T17:39:08.168Z,24.96
2022-09-06T17:41:38.936Z,25.14
2022-09-06T17:44:10.458Z,24.99
2022-09-06T17:46:47.667Z,24.94
2022-09-06T17:49:25.807Z,25.18
2022-09-06T17:51:53.855Z,25.16
2022-09-06T17:54:21.702Z,25.37
2022-09-06T17:56:49.476Z,25.46
2022-09-06T17:59:18.641Z,25.37
2022-09-06T18:01:46.676Z,25.38
2022-09-06T18:04:16.025Z,25.18
2022-09-06T18:06:46.405Z,25.02
2022-09-06T18:09:16.801Z,24.87
2022-09-06T18:11:46.560Z,24.76
2022-09-06T18:14:17.545Z,24.78
2022-09-06T18:16:49.111Z,25.06
2022-09-06T18:19:17.754Z,25.24
2022-09-06T18:21:45.692Z,25.08
2022-09-06T18:24:13.974Z,24.91
2022-09-06T18:26:42.488Z,24.75
2022-09-06T18:29:14.105Z,24.63
2022-09-06T18:31:42.857Z,24.57
2022-09-06T18:34:12.403Z,24.48
2022-09-06T18:36:40.635Z,24.46
2022-09-06T18:39:08.954Z,24.39
2022-09-06T18:41:54.333Z,24.33
2022-09-06T18:44:22.472Z,24.26
2022-09-06T18:46:50.301Z,24.23
2022-09-06T18:49:19.437Z,24.20
2022-09-06T18:51:47.520Z,24.20
2022-09-06T18:54:15.694Z,24.18
2022-09-06T18:56:44.774Z,24.20
2022-09-06T18:59:13.744Z,24.38
2022-09-06T19:01:42.762Z,25.02
2022-09-06T19:04:11.350Z,25.20
2022-09-06T19:06:42.940Z,25.10
2022-09-06T19:09:13.790Z,24.88
2022-09-06T19:11:43.449Z,24.78
2022-09-06T19:14:11.386Z,24.57
2022-09-06T19:16:39.336Z,24.41
2022-09-06T19:19:09.872Z,24.38
2022-09-06T19:21:41.740Z,24.53
2022-09-06T19:24:14.585Z,24.94
2022-09-06T19:26:44.525Z,25.12
2022-09-06T19:29:15.377Z,25.13
2022-09-06T19:31:44.287Z,25.11
2022-09-06T19:34:15.377Z,25.09
2022-09-06T19:36:44.473Z,25.06
2022-09-06T19:39:15.697Z,25.03
2022-09-06T19:41:46.635Z,24.98
2022-09-06T19:44:15.824Z,24.93
2022-09-06T19:46:45.994Z,24.91
2022-09-06T19:49:14.787Z,24.81
2022-09-06T19:51:43.828Z,24.69
2022-09-06T19:54:13.456Z,24.75
2022-09-06T19:56:41.320Z,24.71
2022-09-06T19:59:12.154Z,24.52
2022-09-06T20:01:41.769Z,24.51
2022-09-06T20:04:11.261Z,24.68
2022-09-06T20:06:39.405Z,24.70
2022-09-06T20:09:12.627Z,24.53
2022-09-06T20:11:43.051Z,24.39
2022-09-06T20:14:11.643Z,24.23
2022-09-06T20:16:42.192Z,24.14
2022-09-06T20:19:11.041Z,24.05
2022-09-06T20:24:20.631Z,24.47
2022-09-06T20:26:49.736Z,24.55
2022-09-06T20:29:17.677Z,24.55
2022-09-06T20:31:45.559Z,24.49
2022-09-06T20:34:18.087Z,24.46
2022-09-06T20:36:45.894Z,24.39
2022-09-06T20:39:14.345Z,24.30
2022-09-06T20:41:42.757Z,24.22
2022-09-06T20:44:12.073Z,24.15
2022-09-06T20:46:39.963Z,24.16
2022-09-06T20:49:08.947Z,24.06
2022-09-06T20:51:40.271Z,24.09
2022-09-06T20:54:08.114Z,24.05
2022-09-06T20:56:38.856Z,24.05
2022-09-06T20:59:08.583Z,24.10
2022-09-06T21:01:41.191Z,24.03
2022-09-06T21:04:10.510Z,23.93
2022-09-06T21:06:39.730Z,23.90
2022-09-06T21:09:09.072Z,23.84
2022-09-06T21:11:37.305Z,23.86
2022-09-06T21:14:05.666Z,23.85
2022-09-06T21:16:33.922Z,23.81
2022-09-06T21:19:16.544Z,23.77
2022-09-06T21:21:44.897Z,23.73
2022-09-06T21:24:12.767Z,23.67
2022-09-06T21:26:42.857Z,23.65
2022-09-06T21:29:10.707Z,23.50
2022-09-06T21:31:39.023Z,23.55
2022-09-06T21:34:15.499Z,23.59
2022-09-06T21:39:13.338Z,23.60
2022-09-06T21:41:43.161Z,23.63
2022-09-06T21:44:12.099Z,23.56
2022-09-06T21:46:41.228Z,23.47
2022-09-06T21:49:12.877Z,23.41
2022-09-06T21:51:41.234Z,23.42
2022-09-06T21:54:09.094Z,23.38
2022-09-06T21:56:39.070Z,23.32
2022-09-06T21:59:07.492Z,23.41
2022-09-06T22:01:37.968Z,23.44
2022-09-06T22:04:06.349Z,23.37
2022-09-06T22:06:36.663Z,23.30
2022-09-06T22:09:08.623Z,23.33
2022-09-06T22:11:37.073Z,23.33
2022-09-06T22:14:07.475Z,23.34
2022-09-06T22:16:37.248Z,23.25
2022-09-06T22:19:06.172Z,23.21
2022-09-06T22:21:35.598Z,23.13
2022-09-06T22:24:06.380Z,23.12
2022-09-06T22:26:36.546Z,23.24
2022-09-06T22:29:06.957Z,23.24
2022-09-06T22:31:35.926Z,23.16
2022-09-06T22:34:04.014Z,23.28
2022-09-06T22:36:32.056Z,23.30
2022-09-06T22:39:01.332Z,23.15
2022-09-06T22:41:30.704Z,23.13
2022-09-06T22:44:00.689Z,23.11
2022-09-06T22:46:28.880Z,23.06
2022-09-06T22:48:57.138Z,22.89
2022-09-06T22:51:24.993Z,22.82
2022-09-06T22:53:52.739Z,22.73
2022-09-06T22:56:22.086Z,22.73
2022-09-06T22:58:49.888Z,22.60
2022-09-06T23:01:18.284Z,22.51
2022-09-06T23:03:48.010Z,22.45
2022-09-06T23:06:15.750Z,22.48
2022-09-06T23:08:43.726Z,22.52
2022-09-06T23:11:15.904Z,22.52
2022-09-06T23:13:46.970Z,22.52
2022-09-06T23:16:17.114Z,22.56
2022-09-06T23:18:45.427Z,22.50
2022-09-06T23:21:15.265Z,22.53
2022-09-06T23:23:43.650Z,22.59
2022-09-06T23:29:05.148Z,22.58
2022-09-06T23:31:33.454Z,22.79
2022-09-06T23:34:02.313Z,22.82
2022-09-06T23:36:30.611Z,23.11
2022-09-06T23:38:59.004Z,22.95
2022-09-06T23:41:26.886Z,22.71
2022-09-06T23:43:54.749Z,22.59
2022-09-06T23:46:23.922Z,22.55
2022-09-06T23:48:51.679Z,22.47
2022-09-06T23:51:19.657Z,22.37
2022-09-06T23:53:47.703Z,22.28
2022-09-06T23:56:15.742Z,22.24
2022-09-06T23:58:43.518Z,22.39
